createdAt,value
2018-11-14T00:00:27.735Z,2.20
2018-11-14T00:02:57.435Z,2.30
2018-11-14T00:05:26.298Z,2.30
2018-11-14T00:07:55.136Z,2.30
2018-11-14T00:10:23.943Z,2.40
2018-11-14T00:12:52.787Z,2.30
2018-11-14T00:15:22.899Z,2.30
2018-11-14T00:17:52.187Z,2.30
2018-11-14T00:20:21.043Z,2.20
2018-11-14T00:22:50.487Z,2.20
2018-11-14T00:25:19.316Z,2.20
2018-11-14T00:27:48.147Z,2.30
2018-11-14T00:30:21.346Z,2.30
2018-11-14T00:32:50.191Z,2.30
2018-11-14T00:35:19.014Z,2.20
2018-11-14T00:37:48.238Z,2.10
2018-11-14T00:40:18.042Z,2.20
2018-11-14T00:42:47.331Z,2.10
2018-11-14T00:45:17.547Z,2.10
2018-11-14T00:47:47.258Z,2.20
2018-11-14T00:50:16.854Z,2.30
2018-11-14T00:52:46.175Z,2.20
2018-11-14T00:55:18.148Z,2.20
2018-11-14T00:57:47.937Z,2.10
2018-11-14T01:00:19.212Z,2.20
2018-11-14T01:02:48.071Z,2.20
2018-11-14T01:05:17.590Z,2.20
2018-11-14T01:07:46.422Z,2.30
2018-11-14T01:10:18.450Z,2.20
2018-11-14T01:12:47.839Z,2.00
2018-11-14T01:15:18.004Z,1.80
2018-11-14T01:17:46.823Z,1.60
2018-11-14T01:20:16.974Z,1.40
2018-11-14T01:22:46.410Z,1.30
2018-11-14T01:25:16.091Z,1.10
2018-11-14T01:27:45.370Z,1.00
2018-11-14T01:30:21.394Z,0.90
2018-11-14T01:32:50.638Z,0.80
2018-11-14T01:35:19.763Z,0.70
2018-11-14T01:37:48.668Z,0.60
2018-11-14T01:40:20.486Z,0.70
2018-11-14T01:42:50.610Z,0.60
2018-11-14T01:45:19.560Z,0.60
2018-11-14T01:47:48.479Z,0.50
2018-11-14T01:50:17.403Z,0.50
2018-11-14T01:52:46.239Z,0.50
2018-11-14T01:55:16.295Z,0.50
2018-11-14T01:57:45.155Z,0.50
2018-11-14T02:00:15.987Z,0.50
2018-11-14T02:02:44.836Z,0.60
2018-11-14T02:05:13.659Z,0.70
2018-11-14T02:07:42.486Z,0.80
2018-11-14T02:10:12.843Z,0.90
2018-11-14T02:12:41.999Z,0.90
2018-11-14T02:15:14.095Z,0.90
2018-11-14T02:17:42.919Z,1.00
2018-11-14T02:20:12.258Z,1.00
2018-11-14T02:22:41.564Z,1.10
2018-11-14T02:25:11.054Z,1.20
2018-11-14T02:27:39.960Z,1.20
2018-11-14T02:30:13.779Z,1.20
2018-11-14T02:32:42.615Z,1.20
2018-11-14T02:35:11.654Z,1.10
2018-11-14T02:37:41.846Z,1.10
2018-11-14T02:40:13.025Z,1.00
2018-11-14T02:42:42.004Z,1.00
2018-11-14T02:45:11.538Z,0.90
2018-11-14T02:47:40.351Z,0.90
2018-11-14T02:50:10.400Z,0.90
2018-11-14T02:52:39.237Z,0.80
2018-11-14T02:55:09.220Z,0.70
2018-11-14T02:57:38.123Z,0.70
2018-11-14T03:00:09.253Z,0.60
2018-11-14T03:02:38.136Z,0.50
2018-11-14T03:05:07.001Z,0.60
2018-11-14T03:07:35.874Z,0.60
2018-11-14T03:10:06.154Z,0.60
2018-11-14T03:12:35.058Z,0.60
2018-11-14T03:15:04.333Z,0.60
2018-11-14T03:17:33.177Z,0.70
2018-11-14T03:20:02.006Z,0.70
2018-11-14T03:22:30.825Z,0.70
2018-11-14T03:24:59.648Z,0.70
2018-11-14T03:27:28.475Z,0.70
2018-11-14T03:29:57.304Z,0.70
2018-11-14T03:32:26.137Z,0.70
2018-11-14T03:34:54.955Z,0.80
2018-11-14T03:37:23.807Z,0.80
2018-11-14T03:39:52.645Z,0.80
2018-11-14T03:42:21.472Z,0.90
2018-11-14T03:44:50.820Z,1.00
2018-11-14T03:47:19.728Z,1.00
2018-11-14T03:49:48.604Z,1.10
2018-11-14T03:52:17.400Z,1.10
2018-11-14T03:54:46.223Z,1.10
2018-11-14T03:57:15.052Z,1.10
2018-11-14T03:59:43.890Z,1.20
2018-11-14T04:02:12.719Z,1.30
2018-11-14T04:04:41.548Z,1.40
2018-11-14T04:07:10.386Z,1.50
2018-11-14T04:09:39.221Z,1.60
2018-11-14T04:12:08.064Z,1.60
2018-11-14T04:14:36.887Z,1.80
2018-11-14T04:17:05.767Z,2.00
2018-11-14T04:19:34.583Z,2.10
2018-11-14T04:22:03.416Z,2.10
2018-11-14T04:24:32.248Z,2.10
2018-11-14T04:27:01.105Z,2.10
2018-11-14T04:29:29.976Z,2.20
2018-11-14T04:31:58.885Z,2.10
2018-11-14T04:34:27.712Z,2.10
2018-11-14T04:36:56.552Z,2.10
2018-11-14T04:39:25.376Z,2.00
2018-11-14T04:41:54.211Z,2.00
2018-11-14T04:44:23.069Z,1.90
2018-11-14T04:46:51.891Z,1.80
2018-11-14T04:49:20.715Z,1.80
2018-11-14T04:51:49.547Z,1.80
2018-11-14T04:54:18.384Z,1.70
2018-11-14T04:56:47.210Z,1.70
2018-11-14T04:59:16.047Z,1.80
2018-11-14T05:01:44.868Z,1.80
2018-11-14T05:04:13.716Z,1.80
2018-11-14T05:06:42.545Z,1.90
2018-11-14T05:09:12.483Z,1.80
2018-11-14T05:11:41.785Z,1.90
2018-11-14T05:14:11.088Z,1.90
2018-11-14T05:16:39.976Z,1.90
2018-11-14T05:19:08.812Z,2.00
2018-11-14T05:21:37.649Z,2.00
2018-11-14T05:24:06.501Z,2.10
2018-11-14T05:26:35.327Z,2.10
2018-11-14T05:29:04.161Z,2.20
2018-11-14T05:31:32.982Z,2.30
2018-11-14T05:34:01.832Z,2.30
2018-11-14T05:36:30.667Z,2.50
2018-11-14T05:38:59.491Z,2.50
2018-11-14T05:41:28.349Z,2.60
2018-11-14T05:43:57.207Z,2.70
2018-11-14T05:46:26.045Z,2.70
2018-11-14T05:48:54.893Z,2.80
2018-11-14T05:51:23.728Z,2.90
2018-11-14T05:53:52.560Z,3.00
2018-11-14T05:56:21.495Z,3.10
2018-11-14T05:58:50.634Z,3.10
2018-11-14T06:01:19.471Z,3.20
2018-11-14T06:03:49.507Z,3.30
2018-11-14T06:06:18.339Z,3.30
2018-11-14T06:08:47.193Z,3.30
2018-11-14T06:11:16.028Z,3.40
2018-11-14T06:13:44.876Z,3.50
2018-11-14T06:16:13.723Z,3.50
2018-11-14T06:18:42.592Z,3.50
2018-11-14T06:21:11.714Z,3.50
2018-11-14T06:23:40.590Z,3.40
2018-11-14T06:26:09.404Z,3.30
2018-11-14T06:28:38.414Z,3.30
2018-11-14T06:31:08.338Z,3.20
2018-11-14T06:33:37.313Z,3.20
2018-11-14T06:36:06.278Z,3.20
2018-11-14T06:38:35.289Z,3.30
2018-11-14T06:41:04.301Z,3.30
2018-11-14T06:43:33.256Z,3.30
2018-11-14T06:46:02.458Z,3.40
2018-11-14T06:48:31.304Z,3.50
2018-11-14T06:51:00.155Z,3.40
2018-11-14T06:53:29.003Z,3.50
2018-11-14T06:55:57.853Z,3.50
2018-11-14T06:58:27.085Z,3.50
2018-11-14T07:00:55.919Z,3.50
2018-11-14T07:03:24.843Z,3.60
2018-11-14T07:05:53.638Z,3.60
2018-11-14T07:08:22.465Z,3.70
2018-11-14T07:10:51.342Z,3.80
2018-11-14T07:13:20.181Z,3.60
2018-11-14T07:15:49.045Z,3.60
2018-11-14T07:18:17.890Z,3.40
2018-11-14T07:20:46.760Z,3.40
2018-11-14T07:23:15.615Z,3.40
2018-11-14T07:25:45.353Z,3.40
2018-11-14T07:28:16.302Z,3.50
2018-11-14T07:30:45.673Z,3.60
2018-11-14T07:33:14.549Z,3.50
2018-11-14T07:35:43.422Z,3.40
2018-11-14T07:38:47.210Z,3.40
2018-11-14T07:41:24.377Z,3.40
2018-11-14T07:43:53.387Z,3.30
2018-11-14T07:46:27.832Z,3.50
2018-11-14T07:48:56.732Z,3.40
2018-11-14T07:51:25.506Z,3.40
2018-11-14T07:53:54.670Z,3.40
2018-11-14T07:56:23.708Z,3.50
2018-11-14T07:58:52.841Z,3.50
2018-11-14T08:01:22.002Z,3.40
2018-11-14T08:03:51.288Z,3.50
2018-11-14T08:06:20.327Z,3.50
2018-11-14T08:08:49.164Z,3.60
2018-11-14T08:11:18.024Z,3.70
2018-11-14T08:13:48.070Z,3.60
2018-11-14T08:16:17.061Z,3.70
2018-11-14T08:18:46.021Z,3.60
2018-11-14T08:21:14.807Z,3.80
2018-11-14T08:23:43.632Z,3.90
2018-11-14T08:26:12.474Z,3.80
2018-11-14T08:28:41.363Z,3.80
2018-11-14T08:31:10.209Z,3.80
2018-11-14T08:33:39.041Z,3.90
2018-11-14T08:36:07.994Z,4.10
2018-11-14T08:38:36.824Z,4.30
2018-11-14T08:41:05.694Z,4.10
2018-11-14T08:43:34.512Z,4.30
2018-11-14T08:46:03.343Z,4.40
2018-11-14T08:48:32.168Z,4.30
2018-11-14T08:51:01.013Z,4.10
2018-11-14T08:53:30.312Z,4.00
2018-11-14T08:55:59.148Z,3.90
2018-11-14T08:58:28.047Z,3.90
2018-11-14T09:00:56.898Z,4.00
2018-11-14T09:03:26.318Z,4.30
2018-11-14T09:05:55.933Z,4.40
2018-11-14T09:08:24.769Z,4.40
2018-11-14T09:10:53.661Z,4.50
2018-11-14T09:13:22.440Z,4.50
2018-11-14T09:15:51.267Z,4.60
2018-11-14T09:18:20.172Z,4.70
2018-11-14T09:20:48.929Z,4.90
2018-11-14T09:23:17.828Z,4.90
2018-11-14T09:25:46.643Z,4.80
2018-11-14T09:28:15.476Z,4.90
2018-11-14T09:30:44.313Z,4.90
2018-11-14T09:33:13.220Z,5.10
2018-11-14T09:35:41.980Z,5.40
2018-11-14T09:38:10.861Z,5.20
2018-11-14T09:40:39.703Z,5.20
2018-11-14T09:43:08.583Z,5.00
2018-11-14T09:45:37.488Z,5.10
2018-11-14T09:48:06.369Z,5.20
2018-11-14T09:50:35.510Z,5.00
2018-11-14T09:53:05.582Z,5.00
2018-11-14T09:55:34.374Z,5.10
2018-11-14T09:58:03.217Z,5.20
2018-11-14T10:03:08.367Z,5.50
2018-11-14T10:05:37.200Z,5.40
2018-11-14T10:08:06.046Z,5.60
2018-11-14T10:10:34.857Z,5.60
2018-11-14T10:13:03.691Z,5.60
2018-11-14T10:15:32.529Z,5.30
2018-11-14T10:18:01.335Z,5.20
2018-11-14T10:20:30.160Z,5.50
2018-11-14T10:22:58.989Z,5.60
2018-11-14T10:25:27.820Z,5.90
2018-11-14T10:27:58.767Z,6.20
2018-11-14T10:30:28.357Z,6.40
2018-11-14T10:32:57.193Z,6.20
2018-11-14T10:35:26.016Z,6.00
2018-11-14T10:37:54.852Z,6.00
2018-11-14T10:40:25.000Z,6.00
2018-11-14T10:42:53.892Z,6.00
2018-11-14T10:45:24.102Z,6.00
2018-11-14T10:47:53.060Z,6.00
2018-11-14T10:50:24.031Z,5.70
2018-11-14T10:52:52.947Z,5.60
2018-11-14T10:55:22.012Z,5.80
2018-11-14T10:57:51.071Z,5.90
2018-11-14T11:00:27.663Z,5.90
2018-11-14T11:03:02.357Z,5.80
2018-11-14T11:05:36.676Z,6.10
2018-11-14T11:08:11.054Z,6.30
2018-11-14T11:10:45.244Z,6.70
2018-11-14T11:13:19.615Z,6.80
2018-11-14T11:15:53.945Z,6.80
2018-11-14T11:18:28.331Z,6.80
2018-11-14T11:20:57.199Z,7.00
2018-11-14T11:23:26.047Z,6.40
2018-11-14T11:25:54.878Z,6.20
2018-11-14T11:28:23.735Z,6.20
2018-11-14T11:30:52.564Z,6.10
2018-11-14T11:33:21.403Z,6.60
2018-11-14T11:35:50.240Z,6.80
2018-11-14T11:38:19.145Z,6.70
2018-11-14T11:40:47.911Z,6.50
2018-11-14T11:43:16.777Z,6.40
2018-11-14T11:45:45.598Z,6.30
2018-11-14T11:48:14.429Z,6.10
2018-11-14T11:50:43.261Z,6.20
2018-11-14T11:53:12.086Z,6.10
2018-11-14T11:55:41.251Z,6.10
2018-11-14T11:58:10.148Z,6.20
2018-11-14T12:00:39.215Z,6.60
2018-11-14T12:03:07.829Z,6.80
2018-11-14T12:05:36.719Z,7.00
2018-11-14T12:08:05.536Z,7.00
2018-11-14T12:10:34.391Z,7.10
2018-11-14T12:13:03.266Z,7.10
2018-11-14T12:15:32.071Z,6.80
2018-11-14T12:18:00.895Z,6.90
2018-11-14T12:20:29.710Z,7.00
2018-11-14T12:22:58.544Z,7.00
2018-11-14T12:25:27.378Z,7.20
2018-11-14T12:27:56.275Z,7.00
2018-11-14T12:30:25.439Z,7.20
2018-11-14T12:32:54.281Z,7.10
2018-11-14T12:35:30.215Z,7.10
2018-11-14T12:37:59.143Z,7.10
2018-11-14T12:40:28.022Z,7.20
2018-11-14T12:42:56.852Z,7.10
2018-11-14T12:45:25.832Z,6.80
2018-11-14T12:47:55.057Z,6.80
2018-11-14T12:50:24.160Z,7.00
2018-11-14T12:52:53.653Z,7.10
2018-11-14T12:55:22.840Z,7.00
2018-11-14T12:57:51.861Z,6.70
2018-11-14T13:00:21.399Z,6.70
2018-11-14T13:02:51.014Z,6.70
2018-11-14T13:05:19.832Z,6.90
2018-11-14T13:07:48.903Z,6.90
2018-11-14T13:10:18.838Z,6.80
2018-11-14T13:12:48.647Z,6.90
2018-11-14T13:15:18.908Z,6.80
2018-11-14T13:17:48.590Z,7.00
2018-11-14T13:20:19.215Z,7.00
2018-11-14T13:22:48.075Z,6.80
2018-11-14T13:25:17.147Z,6.80
2018-11-14T13:27:47.225Z,6.80
2018-11-14T13:30:18.594Z,6.70
2018-11-14T13:32:48.240Z,6.70
2018-11-14T13:35:18.438Z,6.80
2018-11-14T13:37:48.013Z,6.90
2018-11-14T13:40:17.072Z,6.90
2018-11-14T13:42:46.924Z,6.90
2018-11-14T13:45:16.944Z,6.90
2018-11-14T13:47:45.929Z,6.80
2018-11-14T13:50:18.279Z,6.90
2018-11-14T13:52:47.076Z,6.70
2018-11-14T13:55:17.224Z,6.60
2018-11-14T13:57:47.269Z,6.70
2018-11-14T14:00:18.340Z,6.60
2018-11-14T14:02:47.768Z,6.60
2018-11-14T14:05:18.897Z,6.40
2018-11-14T14:07:47.800Z,6.30
2018-11-14T14:10:17.221Z,6.60
2018-11-14T14:12:47.639Z,6.30
2018-11-14T14:15:18.878Z,6.20
2018-11-14T14:17:48.472Z,6.00
2018-11-14T14:20:18.061Z,5.90
2018-11-14T14:22:46.905Z,5.90
2018-11-14T14:25:17.426Z,5.90
2018-11-14T14:27:46.257Z,6.00
2018-11-14T14:30:16.376Z,6.10
2018-11-14T14:32:45.831Z,6.20
2018-11-14T14:35:15.828Z,6.30
2018-11-14T14:37:44.756Z,6.20
2018-11-14T14:40:15.205Z,6.00
2018-11-14T14:42:44.470Z,5.90
2018-11-14T14:45:21.635Z,5.90
2018-11-14T14:47:50.545Z,6.10
2018-11-14T14:50:20.068Z,5.90
2018-11-14T14:52:48.989Z,5.90
2018-11-14T14:55:20.275Z,6.00
2018-11-14T14:57:49.244Z,6.10
2018-11-14T15:00:23.185Z,6.00
2018-11-14T15:02:52.032Z,6.20
2018-11-14T15:05:21.075Z,6.20
2018-11-14T15:07:50.053Z,6.10
2018-11-14T15:10:20.435Z,6.10
2018-11-14T15:12:49.508Z,6.20
2018-11-14T15:15:18.953Z,6.20
2018-11-14T15:17:47.831Z,6.20
2018-11-14T15:20:18.884Z,6.10
2018-11-14T15:22:47.992Z,6.10
2018-11-14T15:25:18.357Z,6.10
2018-11-14T15:27:47.652Z,6.10
2018-11-14T15:30:22.308Z,6.10
2018-11-14T15:32:51.420Z,6.00
2018-11-14T15:35:20.384Z,5.90
2018-11-14T15:37:49.186Z,6.00
2018-11-14T15:40:19.092Z,6.00
2018-11-14T15:42:48.231Z,5.90
2018-11-14T15:45:23.089Z,5.80
2018-11-14T15:47:51.949Z,5.80
2018-11-14T15:50:22.328Z,5.80
2018-11-14T15:52:52.296Z,5.80
2018-11-14T15:55:21.581Z,5.80
2018-11-14T15:57:50.430Z,5.80
2018-11-14T16:00:27.060Z,5.80
2018-11-14T16:02:56.183Z,5.70
2018-11-14T16:05:26.091Z,5.70
2018-11-14T16:07:56.314Z,5.70
2018-11-14T16:10:26.033Z,5.70
2018-11-14T16:12:54.876Z,5.70
2018-11-14T16:15:25.155Z,5.80
2018-11-14T16:17:54.003Z,5.70
2018-11-14T16:20:23.996Z,5.70
2018-11-14T16:22:52.829Z,5.70
2018-11-14T16:25:22.770Z,5.50
2018-11-14T16:27:52.951Z,5.50
2018-11-14T16:30:23.320Z,5.40
2018-11-14T16:32:53.404Z,5.40
2018-11-14T16:35:22.250Z,5.40
2018-11-14T16:37:51.105Z,5.40
2018-11-14T16:40:21.199Z,5.50
2018-11-14T16:42:50.823Z,5.50
2018-11-14T16:45:19.637Z,5.40
2018-11-14T16:47:48.493Z,5.40
2018-11-14T16:50:18.403Z,5.40
2018-11-14T16:52:47.490Z,5.30
2018-11-14T16:55:17.620Z,5.30
2018-11-14T16:57:54.083Z,5.30
2018-11-14T17:00:30.532Z,5.30
2018-11-14T17:02:59.754Z,5.40
2018-11-14T17:05:29.752Z,5.40
2018-11-14T17:07:58.616Z,5.50
2018-11-14T17:10:27.457Z,5.50
2018-11-14T17:12:58.496Z,5.50
2018-11-14T17:15:27.684Z,5.60
2018-11-14T17:17:56.569Z,5.60
2018-11-14T17:20:25.420Z,5.50
2018-11-14T17:22:54.879Z,5.40
2018-11-14T17:25:23.804Z,5.30
2018-11-14T17:27:52.709Z,5.30
2018-11-14T17:30:24.122Z,5.30
2018-11-14T17:32:53.508Z,5.20
2018-11-14T17:35:22.385Z,5.20
2018-11-14T17:37:51.242Z,5.30
2018-11-14T17:40:22.433Z,5.30
2018-11-14T17:42:52.045Z,5.20
2018-11-14T17:45:22.963Z,5.30
2018-11-14T17:47:53.785Z,5.40
2018-11-14T17:50:25.016Z,5.40
2018-11-14T17:52:54.370Z,5.40
2018-11-14T17:55:23.723Z,5.50
2018-11-14T17:57:52.524Z,5.40
2018-11-14T18:00:22.762Z,5.40
2018-11-14T18:02:51.665Z,5.30
2018-11-14T18:05:21.889Z,5.30
2018-11-14T18:07:51.443Z,5.30
2018-11-14T18:10:22.417Z,5.30
2018-11-14T18:12:53.534Z,5.20
2018-11-14T18:15:22.366Z,5.20
2018-11-14T18:17:52.789Z,5.20
2018-11-14T18:20:23.007Z,5.20
2018-11-14T18:22:52.521Z,5.20
2018-11-14T18:25:22.038Z,5.20
2018-11-14T18:27:50.964Z,5.20
2018-11-14T18:30:21.125Z,5.20
2018-11-14T18:32:50.156Z,5.30
2018-11-14T18:35:19.864Z,5.30
2018-11-14T18:37:49.446Z,5.20
2018-11-14T18:40:20.681Z,5.10
2018-11-14T18:42:49.782Z,5.10
2018-11-14T18:45:22.947Z,5.00
2018-11-14T18:47:51.900Z,5.00
2018-11-14T18:50:21.265Z,4.90
2018-11-14T18:52:50.815Z,4.90
2018-11-14T18:55:21.179Z,4.90
2018-11-14T18:57:50.474Z,4.80
2018-11-14T19:00:22.152Z,4.80
2018-11-14T19:02:51.072Z,4.80
2018-11-14T19:05:20.338Z,4.80
2018-11-14T19:07:49.372Z,4.90
2018-11-14T19:10:19.764Z,5.00
2018-11-14T19:12:49.516Z,5.00
2018-11-14T19:15:21.809Z,5.00
2018-11-14T19:17:50.722Z,5.00
2018-11-14T19:20:22.512Z,5.00
2018-11-14T19:22:52.104Z,4.90
2018-11-14T19:25:23.384Z,4.90
2018-11-14T19:27:52.244Z,4.80
2018-11-14T19:30:22.540Z,4.80
2018-11-14T19:32:52.221Z,4.80
2018-11-14T19:35:22.052Z,4.80
2018-11-14T19:37:51.906Z,4.80
2018-11-14T19:40:23.012Z,4.80
2018-11-14T19:42:53.471Z,4.90
2018-11-14T19:45:24.446Z,4.80
2018-11-14T19:47:53.804Z,4.90
2018-11-14T19:50:23.259Z,4.90
2018-11-14T19:52:53.217Z,4.80
2018-11-14T19:55:23.370Z,4.80
2018-11-14T19:57:53.589Z,4.80
2018-11-14T20:00:26.439Z,4.80
2018-11-14T20:02:55.509Z,4.80
2018-11-14T20:05:24.891Z,4.80
2018-11-14T20:07:53.916Z,4.80
2018-11-14T20:10:25.074Z,4.90
2018-11-14T20:12:54.197Z,4.80
2018-11-14T20:15:25.556Z,4.80
2018-11-14T20:17:54.538Z,4.80
2018-11-14T20:20:25.864Z,4.80
2018-11-14T20:22:54.931Z,4.90
2018-11-14T20:25:23.941Z,4.90
2018-11-14T20:27:53.157Z,4.90
2018-11-14T20:30:26.334Z,4.90
2018-11-14T20:32:56.229Z,4.90
2018-11-14T20:35:26.036Z,4.80
2018-11-14T20:37:54.900Z,4.80
2018-11-14T20:40:24.167Z,4.80
2018-11-14T20:42:53.701Z,4.90
2018-11-14T20:45:24.745Z,4.80
2018-11-14T20:47:53.603Z,4.90
2018-11-14T20:50:24.276Z,4.80
2018-11-14T20:52:54.745Z,4.70
2018-11-14T20:55:23.822Z,4.60
2018-11-14T20:57:53.303Z,4.60
2018-11-14T21:00:25.307Z,4.50
2018-11-14T21:02:54.293Z,4.50
2018-11-14T21:05:23.531Z,4.60
2018-11-14T21:07:52.739Z,4.50
2018-11-14T21:10:23.145Z,4.50
2018-11-14T21:12:53.086Z,4.50
2018-11-14T21:15:23.633Z,4.50
2018-11-14T21:17:53.613Z,4.60
2018-11-14T21:20:22.667Z,4.50
2018-11-14T21:22:51.828Z,4.50
2018-11-14T21:25:21.392Z,4.50
2018-11-14T21:27:50.701Z,4.50
2018-11-14T21:30:20.997Z,4.50
2018-11-14T21:32:49.922Z,4.60
2018-11-14T21:35:21.796Z,4.60
2018-11-14T21:37:53.007Z,4.60
2018-11-14T21:40:22.000Z,4.60
2018-11-14T21:42:50.847Z,4.50
2018-11-14T21:45:22.669Z,4.50
2018-11-14T21:47:57.010Z,4.60
2018-11-14T21:50:26.815Z,4.50
2018-11-14T21:52:56.364Z,4.50
2018-11-14T21:55:25.312Z,4.50
2018-11-14T21:57:54.168Z,4.60
2018-11-14T22:00:24.497Z,4.70
2018-11-14T22:02:54.517Z,4.70
2018-11-14T22:05:23.355Z,4.70
2018-11-14T22:07:52.224Z,4.60
2018-11-14T22:10:22.303Z,4.60
2018-11-14T22:12:51.523Z,4.60
2018-11-14T22:15:22.648Z,4.60
2018-11-14T22:17:51.478Z,4.60
2018-11-14T22:20:21.783Z,4.60
2018-11-14T22:22:50.780Z,4.70
2018-11-14T22:25:20.984Z,4.70
2018-11-14T22:27:50.130Z,4.70
2018-11-14T22:30:23.051Z,4.70
2018-11-14T22:32:51.902Z,4.70
2018-11-14T22:35:22.049Z,4.70
2018-11-14T22:37:50.787Z,4.70
2018-11-14T22:40:27.234Z,4.80
2018-11-14T22:42:56.066Z,4.70
2018-11-14T22:45:26.227Z,4.60
2018-11-14T22:47:55.073Z,4.80
2018-11-14T22:50:24.632Z,4.50
2018-11-14T22:52:53.726Z,4.60
2018-11-14T22:55:23.535Z,4.50
2018-11-14T22:57:52.935Z,4.50
2018-11-14T23:00:30.740Z,4.40
2018-11-14T23:03:00.959Z,4.40
2018-11-14T23:05:29.816Z,4.50
2018-11-14T23:07:59.250Z,4.50
2018-11-14T23:10:28.345Z,4.50
2018-11-14T23:12:57.192Z,4.60
2018-11-14T23:15:26.388Z,4.60
2018-11-14T23:17:55.151Z,4.60
2018-11-14T23:20:24.056Z,4.60
2018-11-14T23:22:53.566Z,4.60
2018-11-14T23:25:22.826Z,4.70
2018-11-14T23:27:52.839Z,4.60
2018-11-14T23:30:22.845Z,4.60
2018-11-14T23:32:52.664Z,4.70
2018-11-14T23:35:27.754Z,4.70
2018-11-14T23:37:57.910Z,4.70
2018-11-14T23:40:27.056Z,4.70
2018-11-14T23:42:55.847Z,4.80
2018-11-14T23:45:25.520Z,4.80
2018-11-14T23:47:54.353Z,4.80
2018-11-14T23:50:25.185Z,4.80
2018-11-14T23:52:54.934Z,4.80
2018-11-14T23:55:24.556Z,4.80
2018-11-14T23:57:53.391Z,4.80
